createdAt,value
2023-02-15T00:01:23.673Z,0.41
2023-02-15T00:03:53.422Z,0.57
2023-02-15T00:06:22.731Z,0.66
2023-02-15T00:08:52.478Z,0.68
2023-02-15T00:11:23.369Z,0.68
2023-02-15T00:13:52.863Z,0.58
2023-02-15T00:16:22.117Z,0.44
2023-02-15T00:18:53.561Z,0.47
2023-02-15T00:21:22.798Z,0.69
2023-02-15T00:23:52.528Z,0.64
2023-02-15T00:26:21.792Z,0.58
2023-02-15T00:28:52.012Z,0.51
2023-02-15T00:31:22.131Z,0.40
2023-02-15T00:33:51.508Z,0.40
2023-02-15T00:36:21.180Z,0.32
2023-02-15T00:38:51.260Z,0.30
2023-02-15T00:41:20.518Z,0.24
2023-02-15T00:43:49.805Z,0.26
2023-02-15T00:46:19.223Z,0.13
2023-02-15T00:48:49.119Z,0.10
2023-02-15T00:51:19.069Z,0.10
2023-02-15T00:53:48.613Z,0.03
2023-02-15T00:56:18.307Z,0.05
2023-02-15T00:58:47.968Z,0.05
2023-02-15T01:01:19.813Z,-0.03
2023-02-15T01:03:49.842Z,0.03
2023-02-15T01:06:19.826Z,0.01
2023-02-15T01:08:49.781Z,-0.08
2023-02-15T01:11:23.649Z,-0.11
2023-02-15T01:13:58.174Z,-0.14
2023-02-15T01:16:29.058Z,-0.11
2023-02-15T01:18:59.128Z,-0.21
2023-02-15T01:21:28.882Z,-0.16
2023-02-15T01:23:58.366Z,-0.23
2023-02-15T01:26:27.675Z,-0.29
2023-02-15T01:28:56.930Z,-0.16
2023-02-15T01:31:26.372Z,-0.21
2023-02-15T01:33:56.181Z,-0.32
2023-02-15T01:36:25.482Z,-0.33
2023-02-15T01:38:56.498Z,-0.36
2023-02-15T01:41:28.242Z,-0.44
2023-02-15T01:43:59.850Z,-0.44
2023-02-15T01:46:35.172Z,-0.40
2023-02-15T01:49:13.771Z,-0.44
2023-02-15T01:51:45.340Z,-0.52
2023-02-15T01:54:20.940Z,-0.42
2023-02-15T01:56:50.584Z,-0.27
2023-02-15T01:59:22.442Z,-0.28
2023-02-15T02:01:55.987Z,-0.38
2023-02-15T02:04:39.134Z,-0.46
2023-02-15T02:07:10.060Z,-0.39
2023-02-15T02:09:40.431Z,-0.48
2023-02-15T02:12:10.466Z,-0.45
2023-02-15T02:14:42.461Z,-0.54
2023-02-15T02:17:39.775Z,-0.62
2023-02-15T02:20:25.048Z,-0.62
2023-02-15T02:23:17.625Z,-0.60
2023-02-15T02:26:13.165Z,-0.61
2023-02-15T02:28:46.113Z,-0.68
2023-02-15T02:31:18.683Z,-0.72
2023-02-15T02:34:03.602Z,-0.73
2023-02-15T02:36:45.007Z,-0.67
2023-02-15T02:39:32.488Z,-0.78
2023-02-15T02:42:16.236Z,-0.82
2023-02-15T02:44:48.091Z,-0.81
2023-02-15T02:47:23.741Z,-0.77
2023-02-15T02:50:05.592Z,-0.78
2023-02-15T02:52:46.806Z,-0.75
2023-02-15T02:55:34.741Z,-0.77
2023-02-15T02:58:24.257Z,-0.76
2023-02-15T03:01:07.427Z,-0.71
2023-02-15T03:03:42.580Z,-0.76
2023-02-15T03:06:24.763Z,-0.81
2023-02-15T03:09:00.120Z,-0.88
2023-02-15T03:11:29.704Z,-0.90
2023-02-15T03:13:59.717Z,-0.91
2023-02-15T03:16:30.273Z,-0.95
2023-02-15T03:19:02.903Z,-0.95
2023-02-15T03:21:36.268Z,-0.93
2023-02-15T03:24:16.488Z,-0.93
2023-02-15T03:26:48.151Z,-0.82
2023-02-15T03:29:18.786Z,-0.71
2023-02-15T03:31:51.050Z,-0.71
2023-02-15T03:34:19.630Z,-0.84
2023-02-15T03:37:08.341Z,-0.70
2023-02-15T03:39:49.909Z,-0.78
2023-02-15T03:42:35.784Z,-0.85
2023-02-15T03:45:11.224Z,-0.86
2023-02-15T03:47:43.669Z,-0.84
2023-02-15T03:50:32.029Z,-0.89
2023-02-15T03:53:02.546Z,-0.93
2023-02-15T03:55:31.967Z,-0.98
2023-02-15T03:58:19.490Z,-0.98
2023-02-15T04:01:09.649Z,-0.95
2023-02-15T04:03:44.905Z,-0.89
2023-02-15T04:06:14.192Z,-0.94
2023-02-15T04:09:01.576Z,-1.01
2023-02-15T04:11:31.052Z,-1.04
2023-02-15T04:14:01.919Z,-1.06
2023-02-15T04:16:31.420Z,-1.12
2023-02-15T04:19:18.546Z,-1.08
2023-02-15T04:22:05.708Z,-0.98
2023-02-15T04:24:52.771Z,-1.00
2023-02-15T04:27:22.220Z,-1.03
2023-02-15T04:29:51.497Z,-1.11
2023-02-15T04:32:20.921Z,-1.08
2023-02-15T04:34:50.191Z,-1.14
2023-02-15T04:37:19.760Z,-1.14
2023-02-15T04:39:50.689Z,-1.13
2023-02-15T04:42:19.942Z,-1.07
2023-02-15T04:44:49.200Z,-0.88
2023-02-15T04:47:18.798Z,-1.00
2023-02-15T04:49:48.123Z,-1.08
2023-02-15T04:52:19.400Z,-1.12
2023-02-15T04:54:49.650Z,-1.03
2023-02-15T04:57:18.854Z,-0.93
2023-02-15T04:59:48.170Z,-0.93
2023-02-15T05:02:17.818Z,-1.05
2023-02-15T05:04:47.102Z,-1.04
2023-02-15T05:07:16.684Z,-1.14
2023-02-15T05:09:45.994Z,-1.18
2023-02-15T05:12:15.409Z,-1.20
2023-02-15T05:14:44.660Z,-1.25
2023-02-15T05:17:13.920Z,-1.21
2023-02-15T05:19:43.168Z,-1.44
2023-02-15T05:22:12.484Z,-1.35
2023-02-15T05:24:59.732Z,-1.36
2023-02-15T05:27:47.041Z,-1.36
2023-02-15T05:30:16.701Z,-1.37
2023-02-15T05:32:46.169Z,-1.37
2023-02-15T05:35:17.463Z,-1.41
2023-02-15T05:37:46.687Z,-1.46
2023-02-15T05:40:16.216Z,-1.46
2023-02-15T05:42:45.429Z,-1.38
2023-02-15T05:45:15.151Z,-1.40
2023-02-15T05:47:45.137Z,-1.40
2023-02-15T05:50:14.543Z,-1.40
2023-02-15T05:52:44.274Z,-1.45
2023-02-15T05:55:13.657Z,-1.40
2023-02-15T05:57:42.928Z,-1.32
2023-02-15T06:00:14.941Z,-1.26
2023-02-15T06:02:44.415Z,-1.21
2023-02-15T06:05:13.794Z,-1.23
2023-02-15T06:07:45.818Z,-1.02
2023-02-15T06:10:15.469Z,-1.01
2023-02-15T06:12:46.408Z,-1.00
2023-02-15T06:15:16.078Z,-0.97
2023-02-15T06:17:45.678Z,-0.93
2023-02-15T06:20:15.365Z,-0.88
2023-02-15T06:22:44.583Z,-0.79
2023-02-15T06:25:13.837Z,-0.79
2023-02-15T06:27:45.805Z,-0.71
2023-02-15T06:30:15.879Z,-0.64
2023-02-15T06:32:45.302Z,-0.66
2023-02-15T06:35:14.565Z,-0.63
2023-02-15T06:37:43.853Z,-0.57
2023-02-15T06:40:13.995Z,-0.52
2023-02-15T06:42:44.788Z,-0.50
2023-02-15T06:45:14.200Z,-0.56
2023-02-15T06:47:43.618Z,-0.61
2023-02-15T06:50:13.600Z,-0.54
2023-02-15T06:52:42.850Z,-0.52
2023-02-15T06:55:12.240Z,-0.47
2023-02-15T06:57:41.486Z,-0.27
2023-02-15T07:00:11.908Z,-0.39
2023-02-15T07:02:41.166Z,-0.53
2023-02-15T07:05:10.891Z,-0.63
2023-02-15T07:07:40.166Z,-0.66
2023-02-15T07:10:10.009Z,-0.70
2023-02-15T07:12:46.670Z,-0.63
2023-02-15T07:15:18.414Z,-0.59
2023-02-15T07:17:47.920Z,-0.59
2023-02-15T07:20:24.364Z,-0.59
2023-02-15T07:22:53.753Z,-0.51
2023-02-15T07:25:23.005Z,-0.42
2023-02-15T07:28:00.228Z,-0.36
2023-02-15T07:30:30.096Z,-0.31
2023-02-15T07:33:18.687Z,-0.27
2023-02-15T07:35:58.011Z,-0.22
2023-02-15T07:38:35.606Z,-0.15
2023-02-15T07:41:07.500Z,0.01
2023-02-15T07:43:39.237Z,0.19
2023-02-15T07:46:10.205Z,0.52
2023-02-15T07:48:40.719Z,0.57
2023-02-15T07:51:11.918Z,0.68
2023-02-15T07:53:41.872Z,0.74
2023-02-15T07:56:15.109Z,0.86
2023-02-15T07:58:53.478Z,0.96
2023-02-15T08:01:28.252Z,1.07
2023-02-15T08:03:58.330Z,1.26
2023-02-15T08:06:30.546Z,1.44
2023-02-15T08:08:59.803Z,1.55
2023-02-15T08:11:34.213Z,1.76
2023-02-15T08:14:12.240Z,1.89
2023-02-15T08:16:50.120Z,2.21
2023-02-15T08:19:25.659Z,2.53
2023-02-15T08:21:59.163Z,2.55
2023-02-15T08:24:31.933Z,2.26
2023-02-15T08:27:05.094Z,2.34
2023-02-15T08:29:36.354Z,2.33
2023-02-15T08:32:08.266Z,2.50
2023-02-15T08:34:40.737Z,2.59
2023-02-15T08:37:09.535Z,2.52
2023-02-15T08:39:39.111Z,2.32
2023-02-15T08:42:08.637Z,2.42
2023-02-15T08:44:38.180Z,2.52
2023-02-15T08:47:07.576Z,2.56
2023-02-15T08:49:36.818Z,2.72
2023-02-15T08:52:06.160Z,2.92
2023-02-15T08:54:35.789Z,2.87
2023-02-15T08:57:05.743Z,3.00
2023-02-15T08:59:35.218Z,3.27
2023-02-15T09:02:04.529Z,3.83
2023-02-15T09:04:34.150Z,4.25
2023-02-15T09:07:05.042Z,4.82
2023-02-15T09:09:34.584Z,5.75
2023-02-15T09:12:03.909Z,6.30
2023-02-15T09:14:33.477Z,6.73
2023-02-15T09:17:03.090Z,7.08
2023-02-15T09:19:32.339Z,7.16
2023-02-15T09:22:01.976Z,7.19
2023-02-15T09:24:34.797Z,8.02
2023-02-15T09:27:04.185Z,8.39
2023-02-15T09:29:33.555Z,8.61
2023-02-15T09:32:02.968Z,9.66
2023-02-15T09:34:34.158Z,9.58
2023-02-15T09:37:03.917Z,10.47
2023-02-15T09:39:35.154Z,10.33
2023-02-15T09:42:24.329Z,10.09
2023-02-15T09:45:04.557Z,10.44
2023-02-15T09:47:56.681Z,9.68
2023-02-15T09:50:53.580Z,9.65
2023-02-15T09:53:41.270Z,9.86
2023-02-15T09:56:25.573Z,10.29
2023-02-15T09:59:17.632Z,10.52
2023-02-15T10:01:53.036Z,10.88
2023-02-15T10:05:01.454Z,11.74
2023-02-15T10:07:39.510Z,11.91
2023-02-15T10:10:19.040Z,12.98
2023-02-15T10:13:11.376Z,12.09
2023-02-15T10:16:04.383Z,12.06
2023-02-15T10:18:34.797Z,11.56
2023-02-15T10:21:19.698Z,11.64
2023-02-15T10:24:25.392Z,12.14
2023-02-15T10:26:57.215Z,12.59
2023-02-15T10:29:38.243Z,12.10
2023-02-15T10:32:25.690Z,12.55
2023-02-15T10:35:03.655Z,12.44
2023-02-15T10:37:36.106Z,13.12
2023-02-15T10:40:30.041Z,12.57
2023-02-15T10:43:14.564Z,11.89
2023-02-15T10:45:57.884Z,11.49
2023-02-15T10:48:35.573Z,11.40
2023-02-15T10:51:05.971Z,11.55
2023-02-15T10:53:41.350Z,11.93
2023-02-15T10:56:22.346Z,12.13
2023-02-15T10:59:03.197Z,12.54
2023-02-15T11:01:53.750Z,13.28
2023-02-15T11:04:42.391Z,13.20
2023-02-15T11:07:23.861Z,13.00
2023-02-15T11:10:05.565Z,13.79
2023-02-15T11:12:35.716Z,13.81
2023-02-15T11:15:22.180Z,14.34
2023-02-15T11:18:07.202Z,13.58
2023-02-15T11:20:39.855Z,14.34
2023-02-15T11:23:16.911Z,13.70
2023-02-15T11:25:48.392Z,13.26
2023-02-15T11:28:29.748Z,13.26
2023-02-15T11:31:01.310Z,14.04
2023-02-15T11:33:36.915Z,13.91
2023-02-15T11:36:21.301Z,14.17
2023-02-15T11:38:53.680Z,14.45
2023-02-15T11:41:26.034Z,14.34
2023-02-15T11:44:10.126Z,13.84
2023-02-15T11:46:39.819Z,14.55
2023-02-15T11:49:30.224Z,14.44
2023-02-15T11:52:00.164Z,13.88
2023-02-15T11:54:33.147Z,14.80
2023-02-15T11:57:23.157Z,14.32
2023-02-15T12:00:02.172Z,14.31
2023-02-15T12:02:35.454Z,15.09
2023-02-15T12:05:10.932Z,15.72
2023-02-15T12:07:49.186Z,14.90
2023-02-15T12:10:30.337Z,15.50
2023-02-15T12:13:17.207Z,14.37
2023-02-15T12:15:51.023Z,14.33
2023-02-15T12:18:40.281Z,13.98
2023-02-15T12:21:12.890Z,14.22
2023-02-15T12:23:51.669Z,14.41
2023-02-15T12:26:36.389Z,14.27
2023-02-15T12:29:19.257Z,14.40
2023-02-15T12:31:51.722Z,14.05
2023-02-15T12:34:22.019Z,13.73
2023-02-15T12:36:57.872Z,13.58
2023-02-15T12:39:28.985Z,14.22
2023-02-15T12:42:01.861Z,14.72
2023-02-15T12:44:34.654Z,15.12
2023-02-15T12:47:10.050Z,15.20
2023-02-15T12:49:40.504Z,14.60
2023-02-15T12:52:23.958Z,13.94
2023-02-15T12:54:53.762Z,13.48
2023-02-15T12:57:32.354Z,13.51
2023-02-15T13:00:04.960Z,13.53
2023-02-15T13:02:51.033Z,13.64
2023-02-15T13:05:27.227Z,13.90
2023-02-15T13:07:59.116Z,14.16
2023-02-15T13:10:31.004Z,14.06
2023-02-15T13:13:00.695Z,13.09
2023-02-15T13:15:38.568Z,13.08
2023-02-15T13:18:11.428Z,12.34
2023-02-15T13:20:41.881Z,12.23
2023-02-15T13:23:19.874Z,12.43
2023-02-15T13:25:51.569Z,12.23
2023-02-15T13:28:22.584Z,12.35
2023-02-15T13:30:53.246Z,12.41
2023-02-15T13:33:39.418Z,12.32
2023-02-15T13:36:15.926Z,12.11
2023-02-15T13:38:54.997Z,12.00
2023-02-15T13:41:27.717Z,11.96
2023-02-15T13:44:24.617Z,12.04
2023-02-15T13:47:12.494Z,12.17
2023-02-15T13:49:53.857Z,12.17
2023-02-15T13:52:25.577Z,12.07
2023-02-15T13:55:24.928Z,12.05
2023-02-15T13:58:09.184Z,12.15
2023-02-15T14:00:47.424Z,12.11
2023-02-15T14:03:31.952Z,12.25
2023-02-15T14:06:31.509Z,12.09
2023-02-15T14:09:13.217Z,12.12
2023-02-15T14:11:57.516Z,11.88
2023-02-15T14:14:40.569Z,11.76
2023-02-15T14:17:35.130Z,11.80
2023-02-15T14:20:10.821Z,11.62
2023-02-15T14:22:49.267Z,11.75
2023-02-15T14:25:33.308Z,11.64
2023-02-15T14:28:11.753Z,11.69
2023-02-15T14:30:43.534Z,11.72
2023-02-15T14:33:35.918Z,11.57
2023-02-15T14:36:07.620Z,11.74
2023-02-15T14:38:54.839Z,11.83
2023-02-15T14:41:30.049Z,11.96
2023-02-15T14:44:05.740Z,12.04
2023-02-15T14:46:41.161Z,12.12
2023-02-15T14:49:28.823Z,11.99
2023-02-15T14:52:00.445Z,12.14
2023-02-15T14:54:34.478Z,12.28
2023-02-15T14:57:11.044Z,12.29
2023-02-15T14:59:49.564Z,12.17
2023-02-15T15:02:27.445Z,11.98
2023-02-15T15:05:06.410Z,11.66
2023-02-15T15:07:47.948Z,11.64
2023-02-15T15:10:21.545Z,11.48
2023-02-15T15:12:51.785Z,11.33
2023-02-15T15:15:33.590Z,11.42
2023-02-15T15:18:09.881Z,11.36
2023-02-15T15:20:51.886Z,11.29
2023-02-15T15:23:23.696Z,11.33
2023-02-15T15:26:02.303Z,11.23
2023-02-15T15:28:41.029Z,11.38
2023-02-15T15:31:26.117Z,11.39
2023-02-15T15:34:17.809Z,11.31
2023-02-15T15:36:56.020Z,11.40
2023-02-15T15:39:46.554Z,11.38
2023-02-15T15:42:35.808Z,11.26
2023-02-15T15:45:20.805Z,11.10
2023-02-15T15:48:28.020Z,11.06
2023-02-15T15:51:00.706Z,10.94
2023-02-15T15:53:33.552Z,10.82
2023-02-15T15:56:07.934Z,10.74
2023-02-15T15:58:37.385Z,10.76
2023-02-15T16:01:13.384Z,10.62
2023-02-15T16:03:51.117Z,10.57
2023-02-15T16:06:32.269Z,10.40
2023-02-15T16:09:13.637Z,10.39
2023-02-15T16:11:43.201Z,10.24
2023-02-15T16:14:15.621Z,10.19
2023-02-15T16:16:51.551Z,10.12
2023-02-15T16:19:24.317Z,10.05
2023-02-15T16:21:53.638Z,9.93
2023-02-15T16:24:59.866Z,9.82
2023-02-15T16:27:43.050Z,9.74
2023-02-15T16:30:29.908Z,9.58
2023-02-15T16:33:08.349Z,9.39
2023-02-15T16:35:39.798Z,9.28
2023-02-15T16:38:11.732Z,9.25
2023-02-15T16:40:47.178Z,9.38
2023-02-15T16:43:19.027Z,9.30
2023-02-15T16:45:48.545Z,9.21
2023-02-15T16:48:23.422Z,9.08
2023-02-15T16:50:58.623Z,9.06
2023-02-15T16:53:29.595Z,8.98
2023-02-15T16:56:04.382Z,8.91
2023-02-15T16:58:39.346Z,8.88
2023-02-15T17:01:10.646Z,8.71
2023-02-15T17:03:41.417Z,8.72
2023-02-15T17:06:27.843Z,8.61
2023-02-15T17:09:05.640Z,8.57
2023-02-15T17:11:40.602Z,8.55
2023-02-15T17:14:14.671Z,8.42
2023-02-15T17:16:47.468Z,8.21
2023-02-15T17:19:32.222Z,8.19
2023-02-15T17:22:07.821Z,8.13
2023-02-15T17:24:39.763Z,8.05
2023-02-15T17:27:23.267Z,7.87
2023-02-15T17:29:54.754Z,7.68
2023-02-15T17:32:27.093Z,7.62
2023-02-15T17:35:11.340Z,7.65
2023-02-15T17:37:44.481Z,7.67
2023-02-15T17:40:29.060Z,7.54
2023-02-15T17:42:58.661Z,7.63
2023-02-15T17:45:33.488Z,7.41
2023-02-15T17:48:05.436Z,7.34
2023-02-15T17:50:35.007Z,7.30
2023-02-15T17:53:04.721Z,7.31
2023-02-15T17:55:38.409Z,7.46
2023-02-15T17:58:11.385Z,7.36
2023-02-15T18:01:04.202Z,7.32
2023-02-15T18:04:04.155Z,7.32
2023-02-15T18:06:52.237Z,7.06
2023-02-15T18:09:40.884Z,7.00
2023-02-15T18:12:28.422Z,7.04
2023-02-15T18:14:59.112Z,6.94
2023-02-15T18:17:42.758Z,6.94
2023-02-15T18:20:24.573Z,6.86
2023-02-15T18:22:54.361Z,6.87
2023-02-15T18:25:25.768Z,6.92
2023-02-15T18:27:55.589Z,6.92
2023-02-15T18:30:27.096Z,6.90
2023-02-15T18:32:57.856Z,6.91
2023-02-15T18:35:29.895Z,6.98
2023-02-15T18:38:00.190Z,6.92
2023-02-15T18:40:30.866Z,6.89
2023-02-15T18:43:00.144Z,6.97
2023-02-15T18:45:32.502Z,6.85
2023-02-15T18:48:01.929Z,6.78
2023-02-15T18:50:34.600Z,6.84
2023-02-15T18:53:05.517Z,6.79
2023-02-15T18:55:35.550Z,6.81
2023-02-15T18:58:05.218Z,6.78
2023-02-15T19:00:36.691Z,6.65
2023-02-15T19:03:06.666Z,6.73
2023-02-15T19:05:36.215Z,6.76
2023-02-15T19:08:06.198Z,6.75
2023-02-15T19:10:35.780Z,6.61
2023-02-15T19:13:07.114Z,6.60
2023-02-15T19:15:36.349Z,6.84
2023-02-15T19:18:06.336Z,6.64
2023-02-15T19:20:46.357Z,6.67
2023-02-15T19:23:21.204Z,6.62
2023-02-15T19:25:51.382Z,6.53
2023-02-15T19:28:24.228Z,6.59
2023-02-15T19:30:53.923Z,6.76
2023-02-15T19:33:24.057Z,6.58
2023-02-15T19:35:56.827Z,6.44
2023-02-15T19:38:31.510Z,6.33
2023-02-15T19:41:09.286Z,6.17
2023-02-15T19:43:38.666Z,6.40
2023-02-15T19:46:10.017Z,6.43
2023-02-15T19:48:39.239Z,6.33
2023-02-15T19:51:09.674Z,6.13
2023-02-15T19:53:38.960Z,6.16
2023-02-15T19:56:17.679Z,6.24
2023-02-15T19:58:48.551Z,6.30
2023-02-15T20:01:18.307Z,6.23
2023-02-15T20:03:47.584Z,6.17
2023-02-15T20:06:17.163Z,6.18
2023-02-15T20:08:46.849Z,6.16
2023-02-15T20:11:16.184Z,6.25
2023-02-15T20:13:45.502Z,6.15
2023-02-15T20:16:15.200Z,6.27
2023-02-15T20:18:46.526Z,6.30
2023-02-15T20:21:17.570Z,6.45
2023-02-15T20:23:47.080Z,6.38
2023-02-15T20:26:18.829Z,6.37
2023-02-15T20:28:48.841Z,6.46
2023-02-15T20:31:20.793Z,6.52
2023-02-15T20:33:50.793Z,6.59
2023-02-15T20:36:22.333Z,6.73
2023-02-15T20:38:52.181Z,6.61
2023-02-15T20:41:39.309Z,6.43
2023-02-15T20:44:29.441Z,6.29
2023-02-15T20:47:01.601Z,6.25
2023-02-15T20:49:31.012Z,6.18
2023-02-15T20:52:02.014Z,6.06
2023-02-15T20:54:33.938Z,5.96
2023-02-15T20:57:05.407Z,6.02
2023-02-15T20:59:37.833Z,6.02
2023-02-15T21:02:19.151Z,5.97
2023-02-15T21:04:48.495Z,5.94
2023-02-15T21:07:22.634Z,6.06
2023-02-15T21:09:53.529Z,5.97
2023-02-15T21:12:23.691Z,5.95
2023-02-15T21:14:53.014Z,5.88
2023-02-15T21:17:23.494Z,5.84
2023-02-15T21:19:52.785Z,5.78
2023-02-15T21:22:23.344Z,5.72
2023-02-15T21:24:55.074Z,5.78
2023-02-15T21:27:24.665Z,5.63
2023-02-15T21:29:54.330Z,5.50
2023-02-15T21:32:24.070Z,5.51
2023-02-15T21:34:54.034Z,5.55
2023-02-15T21:37:34.179Z,5.53
2023-02-15T21:40:05.468Z,5.59
2023-02-15T21:42:52.782Z,5.39
2023-02-15T21:45:40.350Z,5.39
2023-02-15T21:48:10.109Z,5.38
2023-02-15T21:50:58.408Z,5.38
2023-02-15T21:53:36.495Z,5.29
2023-02-15T21:56:07.985Z,5.30
2023-02-15T21:58:37.828Z,5.21
2023-02-15T22:01:08.098Z,5.26
2023-02-15T22:03:39.642Z,5.29
2023-02-15T22:06:11.019Z,5.28
2023-02-15T22:08:48.290Z,5.26
2023-02-15T22:11:25.605Z,5.25
2023-02-15T22:13:55.240Z,5.02
2023-02-15T22:16:26.757Z,5.38
2023-02-15T22:19:19.639Z,5.43
2023-02-15T22:21:51.796Z,5.46
2023-02-15T22:24:22.132Z,5.54
2023-02-15T22:26:52.939Z,5.41
2023-02-15T22:29:23.980Z,5.33
2023-02-15T22:31:55.183Z,5.35
2023-02-15T22:34:29.666Z,5.18
2023-02-15T22:36:59.981Z,5.12
2023-02-15T22:39:42.705Z,5.25
2023-02-15T22:42:27.147Z,5.18
2023-02-15T22:44:58.128Z,5.18
2023-02-15T22:47:29.886Z,5.19
2023-02-15T22:49:59.156Z,5.10
2023-02-15T22:52:28.551Z,5.11
2023-02-15T22:54:57.754Z,5.20
2023-02-15T22:57:31.792Z,5.32
2023-02-15T23:00:01.411Z,5.19
2023-02-15T23:02:30.807Z,5.14
2023-02-15T23:05:00.215Z,5.09
2023-02-15T23:07:29.690Z,5.26
2023-02-15T23:09:59.391Z,5.20
2023-02-15T23:12:35.038Z,5.06
2023-02-15T23:15:04.414Z,5.08
2023-02-15T23:17:33.897Z,5.14
2023-02-15T23:20:03.107Z,5.06
2023-02-15T23:22:32.498Z,4.97
2023-02-15T23:25:01.714Z,4.94
2023-02-15T23:27:50.884Z,4.95
2023-02-15T23:30:20.449Z,5.01
2023-02-15T23:32:50.277Z,4.89
2023-02-15T23:35:20.725Z,4.88
2023-02-15T23:37:50.119Z,4.85
2023-02-15T23:40:39.639Z,4.85
2023-02-15T23:43:12.291Z,4.81
2023-02-15T23:45:41.759Z,4.77
2023-02-15T23:48:32.376Z,4.68
2023-02-15T23:51:02.251Z,4.65
2023-02-15T23:53:33.488Z,4.77
2023-02-15T23:56:03.384Z,4.78
2023-02-15T23:58:41.438Z,4.74
